< < Back
Terminal Aerodrome Forecast


Current Version              Previous Versions:   1  2  3  4  5  6  7  8  9  

Terminal Aerodrome Forecast

032
FTUS44 KMOB 232314 AAA
TAFPNS
TAF AMD
KPNS 232314Z 2323/2418 22008KT P6SM VCTS SCT045CB SCT100 BKN200
      TEMPO 2323/2324 02012KT 5SM -TSRA BKN040CB
     FM240300 00000KT P6SM SCT250
     FM241500 07006KT P6SM FEW250=



Latest METAR

488
SAUS70 KWBC 240200 RRH
MTRPNS
METAR KPNS 240153Z 00000KT 10SM CLR 27/25 A3014 RMK AO2 SLP207
T02670250


USA.gov is the U.S. government's official web portal to all federal, state and local government web resources and services.